Time;durP1;ratioP1;P1;durP2;ratioP2;P2;SDS_P1;SDS_P2;PMS_P1;PMS_P2;Temp;Humidity;BMP_temperature;BMP_pressure;BME280_temperature;BME280_humidity;BME280_pressure;Samples;Min_cycle;Max_cycle;Signal;HPM_P1;HPM_P2
2022/03/10 00:00:12;;;;;;;13.97;7.77;;;;;;;;;;5111351;28;20036;-70
2022/03/10 00:02:38;;;;;;;14.70;7.97;;;;;;;;;;5105695;28;20016;-70
2022/03/10 00:05:03;;;;;;;11.83;7.33;;;;;;;;;;5110796;28;20106;-69
2022/03/10 00:07:28;;;;;;;10.87;7.27;;;;;;;;;;5095526;28;20383;-70
2022/03/10 00:09:53;;;;;;;12.50;8.37;;;;;;;;;;5095341;28;20013;-69
2022/03/10 00:12:19;;;;;;;11.67;7.73;;;;;;;;;;5110797;28;20430;-70
2022/03/10 00:14:44;;;;;;;10.70;7.63;;;;;;;;;;5095871;28;20024;-70
2022/03/10 00:17:09;;;;;;;10.93;6.87;;;;;;;;;;5111347;28;20524;-70
2022/03/10 00:19:34;;;;;;;11.87;7.57;;;;;;;;;;5096491;28;20115;-70
2022/03/10 00:22:00;;;;;;;12.70;7.57;;;;;;;;;;5100715;28;20028;-69
2022/03/10 00:24:25;;;;;;;10.10;6.97;;;;;;;;;;5100467;28;20030;-70
2022/03/10 00:26:50;;;;;;;12.83;8.20;;;;;;;;;;5112341;28;20484;-70
2022/03/10 00:29:15;;;;;;;12.93;8.60;;;;;;;;;;5113862;28;20020;-69
2022/03/10 00:31:41;;;;;;;15.07;8.63;;;;;;;;;;5112007;28;20031;-69
2022/03/10 00:34:06;;;;;;;12.30;8.73;;;;;;;;;;5111255;28;20063;-70
2022/03/10 00:36:31;;;;;;;11.03;8.13;;;;;;;;;;5101788;28;20028;-70
2022/03/10 00:38:56;;;;;;;9.93;7.30;;;;;;;;;;5094993;28;20431;-70
2022/03/10 00:41:22;;;;;;;13.03;8.30;;;;;;;;;;5098675;28;20110;-70
2022/03/10 00:43:47;;;;;;;12.53;7.67;;;;;;;;;;5101811;28;20031;-70
2022/03/10 00:46:13;;;;;;;10.43;7.60;;;;;;;;;;5101653;28;20033;-67
2022/03/10 00:48:38;;;;;;;13.97;8.70;;;;;;;;;;5113031;28;20057;-70
2022/03/10 00:51:03;;;;;;;11.90;7.93;;;;;;;;;;5108733;28;20400;-70
2022/03/10 00:53:29;;;;;;;11.47;7.80;;;;;;;;;;5097394;28;20118;-70
2022/03/10 00:55:54;;;;;;;11.53;7.70;;;;;;;;;;5110594;28;20415;-70
2022/03/10 00:58:19;;;;;;;13.07;8.17;;;;;;;;;;5113692;28;20031;-70
2022/03/10 01:00:45;;;;;;;13.60;8.40;;;;;;;;;;5105017;28;20431;-69
2022/03/10 01:03:10;;;;;;;15.90;8.77;;;;;;;;;;5104421;28;20038;-70
2022/03/10 01:05:35;;;;;;;14.97;8.37;;;;;;;;;;5111048;28;20016;-70
2022/03/10 01:08:00;;;;;;;12.23;8.93;;;;;;;;;;5102038;28;20027;-70
2022/03/10 01:10:25;;;;;;;11.93;7.70;;;;;;;;;;5093841;28;20032;-70
2022/03/10 01:12:51;;;;;;;9.77;7.77;;;;;;;;;;5110250;28;20028;-71
2022/03/10 01:15:26;;;;;;;9.37;6.77;;;;;;;;;;5112607;28;20027;-71
2022/03/10 01:17:51;;;;;;;12.60;7.63;;;;;;;;;;5106544;28;20023;-69
2022/03/10 01:20:18;;;;;;;14.00;7.67;;;;;;;;;;5110410;28;20042;-71
2022/03/10 01:22:43;;;;;;;11.10;7.63;;;;;;;;;;5111052;28;20027;-71
2022/03/10 01:25:09;;;;;;;12.47;8.07;;;;;;;;;;5108653;28;20016;-71
2022/03/10 01:27:35;;;;;;;11.13;7.90;;;;;;;;;;5097146;28;20028;-71
2022/03/10 01:30:00;;;;;;;11.80;7.43;;;;;;;;;;5105818;28;20061;-70
2022/03/10 01:32:25;;;;;;;11.57;7.60;;;;;;;;;;5096084;28;20184;-71
2022/03/10 01:34:51;;;;;;;14.17;7.73;;;;;;;;;;5111507;28;20118;-69
2022/03/10 01:37:16;;;;;;;9.70;5.60;;;;;;;;;;5107037;28;20028;-71
2022/03/10 01:39:41;;;;;;;9.33;6.50;;;;;;;;;;5092953;28;20115;-70
2022/03/10 01:42:07;;;;;;;9.37;6.57;;;;;;;;;;5109665;28;20096;-71
2022/03/10 01:44:33;;;;;;;9.60;7.00;;;;;;;;;;5099089;28;20089;-70
2022/03/10 01:46:58;;;;;;;9.50;6.10;;;;;;;;;;5109374;28;20477;-70
2022/03/10 01:49:24;;;;;;;12.30;6.80;;;;;;;;;;5104901;28;20106;-70
2022/03/10 01:51:49;;;;;;;7.43;5.97;;;;;;;;;;5113551;28;20106;-70
2022/03/10 01:54:14;;;;;;;8.70;6.17;;;;;;;;;;5104178;28;20475;-70
2022/03/10 01:56:40;;;;;;;8.87;5.93;;;;;;;;;;5111049;28;20138;-69
2022/03/10 01:59:06;;;;;;;12.90;7.83;;;;;;;;;;5106327;28;20063;-71
2022/03/10 02:01:31;;;;;;;13.07;8.53;;;;;;;;;;5113095;28;20024;-70
2022/03/10 02:03:57;;;;;;;11.50;7.60;;;;;;;;;;5107609;28;20357;-70
2022/03/10 02:06:23;;;;;;;12.10;7.83;;;;;;;;;;5105999;28;20025;-70
2022/03/10 02:11:32;;;;;;;14.73;8.93;;;;;;;;;;5109163;28;20076;-70
2022/03/10 02:13:57;;;;;;;14.40;10.10;;;;;;;;;;5111359;28;20099;-70
2022/03/10 02:19:06;;;;;;;13.03;9.17;;;;;;;;;;5112256;28;20529;-70
2022/03/10 02:21:32;;;;;;;15.30;9.17;;;;;;;;;;5106279;28;20016;-70
2022/03/10 02:23:57;;;;;;;15.40;9.33;;;;;;;;;;5107165;28;20487;-69
2022/03/10 02:26:22;;;;;;;15.67;9.23;;;;;;;;;;5108804;28;20016;-69
2022/03/10 02:28:48;;;;;;;14.90;9.33;;;;;;;;;;5099230;28;20028;-70
2022/03/10 02:31:14;;;;;;;11.90;7.47;;;;;;;;;;5110079;28;20047;-69
2022/03/10 02:33:39;;;;;;;12.87;7.60;;;;;;;;;;5104241;28;20039;-70
2022/03/10 02:36:05;;;;;;;12.33;7.63;;;;;;;;;;5097095;28;20047;-70
2022/03/10 02:38:30;;;;;;;13.10;8.77;;;;;;;;;;5100470;28;20546;-70
2022/03/10 02:40:56;;;;;;;11.83;7.83;;;;;;;;;;5110829;28;20031;-70
2022/03/10 02:43:21;;;;;;;11.17;8.37;;;;;;;;;;5102092;28;20573;-69
2022/03/10 02:45:47;;;;;;;12.90;9.30;;;;;;;;;;5099739;28;20016;-70
2022/03/10 02:48:12;;;;;;;12.50;7.80;;;;;;;;;;5090513;28;20110;-70
2022/03/10 02:50:38;;;;;;;13.70;8.87;;;;;;;;;;5091207;28;20115;-69
2022/03/10 02:53:04;;;;;;;13.60;8.83;;;;;;;;;;5101587;28;20030;-70
2022/03/10 02:55:30;;;;;;;11.20;8.53;;;;;;;;;;5105198;28;20185;-70
2022/03/10 02:57:55;;;;;;;14.10;9.03;;;;;;;;;;5107573;28;20115;-70
2022/03/10 03:00:20;;;;;;;12.50;8.27;;;;;;;;;;5111970;28;20444;-70
2022/03/10 03:02:46;;;;;;;19.80;10.30;;;;;;;;;;5108579;28;20057;-70
2022/03/10 03:05:12;;;;;;;18.20;10.30;;;;;;;;;;5112214;28;20024;-70
2022/03/10 03:07:38;;;;;;;18.10;11.10;;;;;;;;;;5110476;28;20157;-69
2022/03/10 03:10:03;;;;;;;21.73;10.93;;;;;;;;;;5116362;28;20102;-68
2022/03/10 03:12:28;;;;;;;19.70;10.90;;;;;;;;;;5105187;28;20113;-70
2022/03/10 03:14:54;;;;;;;21.63;11.47;;;;;;;;;;5114842;28;20020;-70
2022/03/10 03:17:19;;;;;;;18.63;10.97;;;;;;;;;;5115460;28;20472;-70
2022/03/10 03:19:44;;;;;;;18.13;9.83;;;;;;;;;;5115750;28;20494;-70
2022/03/10 03:22:10;;;;;;;21.13;11.07;;;;;;;;;;5112940;28;20544;-71
2022/03/10 03:24:35;;;;;;;17.73;10.07;;;;;;;;;;5112868;28;20026;-70
2022/03/10 03:27:01;;;;;;;18.83;11.23;;;;;;;;;;5111312;28;20038;-70
2022/03/10 03:29:26;;;;;;;21.27;12.43;;;;;;;;;;5115439;28;20051;-71
2022/03/10 03:31:51;;;;;;;23.47;13.17;;;;;;;;;;5115547;28;20019;-70
2022/03/10 03:34:16;;;;;;;23.33;13.13;;;;;;;;;;5114527;28;20069;-70
2022/03/10 03:36:42;;;;;;;22.87;11.57;;;;;;;;;;5111439;28;20055;-70
2022/03/10 03:39:08;;;;;;;18.43;10.93;;;;;;;;;;5096477;28;20028;-70
2022/03/10 03:41:33;;;;;;;18.10;11.03;;;;;;;;;;5100620;28;20088;-70
2022/03/10 03:43:59;;;;;;;22.77;11.17;;;;;;;;;;5108611;28;20058;-69
2022/03/10 03:46:24;;;;;;;17.77;9.80;;;;;;;;;;5115013;28;20131;-70
2022/03/10 03:48:50;;;;;;;16.40;8.63;;;;;;;;;;5104796;28;20027;-70
2022/03/10 03:51:15;;;;;;;11.57;7.47;;;;;;;;;;5106092;28;20022;-70
2022/03/10 03:53:40;;;;;;;13.27;8.07;;;;;;;;;;5102967;28;20174;-69
2022/03/10 03:56:05;;;;;;;16.10;9.00;;;;;;;;;;5112260;28;20044;-69
2022/03/10 03:58:30;;;;;;;12.33;7.97;;;;;;;;;;5112086;28;20016;-69
2022/03/10 04:00:56;;;;;;;13.20;8.43;;;;;;;;;;5095394;28;20032;-70
2022/03/10 04:03:21;;;;;;;16.20;10.20;;;;;;;;;;5103753;28;20030;-70
2022/03/10 04:05:46;;;;;;;18.47;11.43;;;;;;;;;;5102167;28;20026;-70
2022/03/10 04:08:12;;;;;;;17.33;10.13;;;;;;;;;;5099167;28;20186;-69
2022/03/10 04:10:38;;;;;;;17.77;10.53;;;;;;;;;;5110190;28;20032;-70
2022/03/10 04:13:04;;;;;;;18.73;11.23;;;;;;;;;;5114553;28;20062;-69
2022/03/10 04:15:30;;;;;;;16.67;9.30;;;;;;;;;;5113022;28;20419;-67
2022/03/10 04:17:56;;;;;;;17.70;9.67;;;;;;;;;;5110446;27;20108;-69
2022/03/10 04:20:21;;;;;;;19.73;10.37;;;;;;;;;;5112036;28;20604;-69
2022/03/10 04:22:46;;;;;;;15.50;9.37;;;;;;;;;;5110764;28;20115;-69
2022/03/10 04:25:11;;;;;;;15.80;9.50;;;;;;;;;;5104112;28;20016;-69
2022/03/10 04:27:37;;;;;;;13.80;9.27;;;;;;;;;;5113853;28;20008;-69
2022/03/10 04:30:03;;;;;;;14.37;9.00;;;;;;;;;;5112264;28;20034;-66
2022/03/10 04:32:28;;;;;;;13.53;8.40;;;;;;;;;;5114235;28;20108;-69
2022/03/10 04:34:53;;;;;;;14.47;7.97;;;;;;;;;;5095918;28;20019;-68
2022/03/10 04:37:18;;;;;;;13.87;8.07;;;;;;;;;;5108058;28;20027;-69
2022/03/10 04:39:43;;;;;;;14.87;8.50;;;;;;;;;;5114389;28;20055;-70
2022/03/10 04:42:09;;;;;;;14.03;8.50;;;;;;;;;;5112911;28;20059;-70
2022/03/10 04:44:34;;;;;;;11.87;8.13;;;;;;;;;;5113162;28;20110;-68
2022/03/10 04:47:00;;;;;;;14.97;7.67;;;;;;;;;;5114270;27;20059;-70
2022/03/10 04:49:25;;;;;;;13.80;8.10;;;;;;;;;;5112746;28;20027;-68
2022/03/10 04:51:50;;;;;;;13.87;7.80;;;;;;;;;;5108384;28;20024;-69
2022/03/10 04:54:15;;;;;;;15.10;9.03;;;;;;;;;;5108137;28;20012;-69
2022/03/10 04:56:40;;;;;;;17.77;9.93;;;;;;;;;;5112455;28;20035;-69
2022/03/10 04:59:06;;;;;;;14.23;8.47;;;;;;;;;;5113883;28;20036;-69
2022/03/10 05:01:31;;;;;;;12.67;8.10;;;;;;;;;;5114267;28;20084;-69
2022/03/10 05:03:56;;;;;;;12.20;8.13;;;;;;;;;;5109716;28;20110;-70
2022/03/10 05:06:22;;;;;;;15.63;9.90;;;;;;;;;;5112241;28;20054;-70
2022/03/10 05:08:47;;;;;;;14.63;10.10;;;;;;;;;;5112392;28;20020;-70
2022/03/10 05:11:12;;;;;;;15.90;10.47;;;;;;;;;;5113826;28;20034;-70
2022/03/10 05:13:38;;;;;;;14.43;8.80;;;;;;;;;;5112531;28;20122;-70
2022/03/10 05:16:03;;;;;;;14.47;8.57;;;;;;;;;;5111036;28;20398;-70
2022/03/10 05:18:28;;;;;;;11.93;8.00;;;;;;;;;;5112314;28;20476;-68
2022/03/10 05:20:54;;;;;;;12.37;8.37;;;;;;;;;;5113817;28;20069;-69
2022/03/10 05:23:19;;;;;;;15.07;8.23;;;;;;;;;;5084532;28;20028;-70
2022/03/10 05:25:44;;;;;;;12.80;7.17;;;;;;;;;;5109179;28;20110;-69
2022/03/10 05:28:14;;;;;;;11.57;6.40;;;;;;;;;;5094946;28;20024;-69
2022/03/10 05:30:40;;;;;;;11.00;6.47;;;;;;;;;;5112606;28;20110;-71
2022/03/10 05:33:05;;;;;;;10.67;5.87;;;;;;;;;;5099633;28;20024;-70
2022/03/10 05:35:30;;;;;;;10.37;6.37;;;;;;;;;;5111317;28;20035;-70
2022/03/10 05:37:56;;;;;;;10.57;7.47;;;;;;;;;;5087017;28;20081;-70
2022/03/10 05:40:22;;;;;;;15.07;8.50;;;;;;;;;;5097745;28;20129;-70
2022/03/10 05:42:48;;;;;;;15.10;8.70;;;;;;;;;;5113230;28;20031;-70
2022/03/10 05:45:14;;;;;;;16.17;9.63;;;;;;;;;;5107580;28;20062;-70
2022/03/10 05:47:41;;;;;;;14.37;8.73;;;;;;;;;;5107761;28;20540;-68
2022/03/10 05:50:06;;;;;;;12.40;8.50;;;;;;;;;;5105394;28;20042;-70
2022/03/10 05:52:32;;;;;;;13.50;8.97;;;;;;;;;;5103125;28;20028;-71
2022/03/10 05:54:57;;;;;;;13.70;9.17;;;;;;;;;;5103710;28;20073;-69
2022/03/10 05:57:22;;;;;;;15.20;8.93;;;;;;;;;;5107356;28;20066;-70
2022/03/10 05:59:47;;;;;;;15.50;9.67;;;;;;;;;;5112571;28;20468;-70
2022/03/10 06:02:15;;;;;;;15.17;9.90;;;;;;;;;;5095281;28;20028;-70
2022/03/10 06:04:40;;;;;;;14.13;9.57;;;;;;;;;;5109901;28;20488;-70
2022/03/10 06:07:05;;;;;;;13.90;10.33;;;;;;;;;;5105120;28;20039;-69
2022/03/10 06:09:30;;;;;;;20.30;11.17;;;;;;;;;;5107360;28;20019;-69
2022/03/10 06:11:55;;;;;;;18.27;10.53;;;;;;;;;;5098205;28;20391;-70
2022/03/10 06:14:21;;;;;;;16.37;10.30;;;;;;;;;;5098277;28;20028;-69
2022/03/10 06:16:46;;;;;;;22.87;11.03;;;;;;;;;;5109212;28;20396;-71
2022/03/10 06:19:11;;;;;;;19.77;10.90;;;;;;;;;;5109352;28;20372;-70
2022/03/10 06:21:38;;;;;;;18.90;10.50;;;;;;;;;;5110514;28;20413;-70
2022/03/10 06:24:04;;;;;;;16.90;10.37;;;;;;;;;;5093590;28;20019;-70
2022/03/10 06:26:29;;;;;;;15.77;9.97;;;;;;;;;;5110825;28;20031;-70
2022/03/10 06:28:54;;;;;;;16.53;8.90;;;;;;;;;;5110502;28;20082;-70
2022/03/10 06:31:19;;;;;;;16.53;9.93;;;;;;;;;;5109199;28;20649;-69
2022/03/10 06:33:44;;;;;;;13.40;7.93;;;;;;;;;;5100384;28;20069;-69
2022/03/10 06:36:11;;;;;;;16.53;9.27;;;;;;;;;;5099767;28;20088;-68
2022/03/10 06:38:36;;;;;;;12.60;8.00;;;;;;;;;;5096322;28;20553;-71
2022/03/10 06:41:02;;;;;;;14.50;8.53;;;;;;;;;;5101294;28;20020;-70
2022/03/10 06:43:27;;;;;;;17.57;9.00;;;;;;;;;;5107666;28;20012;-71
2022/03/10 06:45:52;;;;;;;12.63;9.20;;;;;;;;;;5094456;28;20028;-70
2022/03/10 06:48:18;;;;;;;14.80;9.30;;;;;;;;;;5105064;28;20072;-71
2022/03/10 06:50:43;;;;;;;15.57;9.57;;;;;;;;;;5094151;28;20020;-69
2022/03/10 06:53:08;;;;;;;13.77;8.47;;;;;;;;;;5091503;28;20408;-70
2022/03/10 06:55:33;;;;;;;14.80;8.87;;;;;;;;;;5105518;28;20506;-70
2022/03/10 06:57:58;;;;;;;14.57;9.00;;;;;;;;;;5107692;28;20464;-70
2022/03/10 07:00:24;;;;;;;15.50;9.13;;;;;;;;;;5110446;28;20369;-70
2022/03/10 07:02:49;;;;;;;18.83;9.83;;;;;;;;;;5111889;28;20011;-71
2022/03/10 07:05:15;;;;;;;14.90;9.33;;;;;;;;;;5107189;28;20047;-70
2022/03/10 07:07:40;;;;;;;15.93;9.53;;;;;;;;;;5101009;28;20043;-70
2022/03/10 07:10:06;;;;;;;18.30;9.87;;;;;;;;;;5106684;28;20114;-70
2022/03/10 07:12:35;;;;;;;15.67;9.57;;;;;;;;;;5108185;28;20031;-68
2022/03/10 07:15:00;;;;;;;19.10;10.67;;;;;;;;;;5097440;28;20036;-69
2022/03/10 07:17:26;;;;;;;17.00;10.13;;;;;;;;;;5111364;28;20100;-70
2022/03/10 07:19:51;;;;;;;14.80;9.13;;;;;;;;;;5111427;28;20032;-70
2022/03/10 07:22:17;;;;;;;19.47;11.13;;;;;;;;;;5112483;28;20035;-71
2022/03/10 07:24:42;;;;;;;16.00;9.87;;;;;;;;;;5104314;28;20012;-71
2022/03/10 07:27:08;;;;;;;16.47;10.33;;;;;;;;;;5105490;28;20043;-71
2022/03/10 07:29:33;;;;;;;15.70;10.77;;;;;;;;;;5106966;28;20028;-71
2022/03/10 07:31:58;;;;;;;16.47;10.30;;;;;;;;;;5110526;28;20074;-71
2022/03/10 07:34:23;;;;;;;16.87;9.17;;;;;;;;;;5102956;28;20035;-71
2022/03/10 07:36:49;;;;;;;16.47;9.27;;;;;;;;;;5099173;28;20028;-70
2022/03/10 07:39:14;;;;;;;13.47;9.10;;;;;;;;;;5109229;28;20043;-70
2022/03/10 07:41:39;;;;;;;13.53;8.37;;;;;;;;;;5109863;28;20028;-68
2022/03/10 07:44:05;;;;;;;11.97;7.63;;;;;;;;;;5111564;28;20051;-71
2022/03/10 07:46:30;;;;;;;11.50;7.80;;;;;;;;;;5103605;28;20379;-70
2022/03/10 07:48:56;;;;;;;13.27;6.87;;;;;;;;;;5105125;28;20060;-70
2022/03/10 07:51:21;;;;;;;11.50;6.53;;;;;;;;;;5091208;28;20085;-70
2022/03/10 07:53:46;;;;;;;10.50;6.53;;;;;;;;;;5090329;28;23344;-68
2022/03/10 07:56:12;;;;;;;11.27;6.73;;;;;;;;;;5108491;28;20047;-71
2022/03/10 07:58:37;;;;;;;9.90;6.33;;;;;;;;;;5102535;28;20024;-71
2022/03/10 08:01:02;;;;;;;8.93;5.97;;;;;;;;;;5111024;28;20039;-70
2022/03/10 08:03:27;;;;;;;13.43;5.93;;;;;;;;;;5108253;28;20099;-70
2022/03/10 08:05:53;;;;;;;8.97;5.60;;;;;;;;;;5113236;28;20023;-70
2022/03/10 08:08:18;;;;;;;10.03;5.53;;;;;;;;;;5111531;28;20075;-69
2022/03/10 08:10:44;;;;;;;8.77;5.20;;;;;;;;;;5113213;28;20491;-69
2022/03/10 08:13:09;;;;;;;8.93;5.10;;;;;;;;;;5114833;28;20483;-71
2022/03/10 08:15:34;;;;;;;8.43;5.10;;;;;;;;;;5113352;28;20468;-70
2022/03/10 08:17:59;;;;;;;8.77;5.00;;;;;;;;;;5108476;28;20492;-69
2022/03/10 08:20:25;;;;;;;9.40;4.60;;;;;;;;;;5112364;28;20027;-70
2022/03/10 08:22:50;;;;;;;6.67;4.60;;;;;;;;;;5099550;28;20065;-69
2022/03/10 08:25:16;;;;;;;6.93;4.90;;;;;;;;;;5108091;28;20046;-70
2022/03/10 08:27:41;;;;;;;7.90;4.83;;;;;;;;;;5114744;28;20023;-71
2022/03/10 08:30:07;;;;;;;9.67;4.70;;;;;;;;;;5112192;28;20034;-71
2022/03/10 08:32:32;;;;;;;7.97;5.17;;;;;;;;;;5101356;28;20066;-67
2022/03/10 08:34:57;;;;;;;7.77;4.57;;;;;;;;;;5097493;28;20229;-71
2022/03/10 08:37:23;;;;;;;8.63;4.90;;;;;;;;;;5113481;27;20096;-69
2022/03/10 08:39:48;;;;;;;7.37;4.93;;;;;;;;;;5111358;28;20024;-69
2022/03/10 08:42:13;;;;;;;11.13;5.47;;;;;;;;;;5112767;28;20032;-69
2022/03/10 08:44:39;;;;;;;7.50;4.70;;;;;;;;;;5114424;28;20069;-70
2022/03/10 08:47:07;;;;;;;6.33;4.27;;;;;;;;;;5109769;28;20023;-70
2022/03/10 08:49:32;;;;;;;8.70;4.77;;;;;;;;;;5112870;28;20032;-67
2022/03/10 08:51:57;;;;;;;6.47;4.67;;;;;;;;;;5110482;28;20084;-71
2022/03/10 08:54:24;;;;;;;7.67;4.73;;;;;;;;;;5105588;28;20028;-69
2022/03/10 08:56:49;;;;;;;7.20;4.63;;;;;;;;;;5105546;28;20054;-70
2022/03/10 08:59:14;;;;;;;9.35;4.45;;;;;;;;;;5113475;28;20016;-71
2022/03/10 09:01:40;;;;;;;9.00;4.75;;;;;;;;;;5113365;28;20039;-70
2022/03/10 09:04:05;;;;;;;6.30;4.35;;;;;;;;;;5112959;28;20475;-68
2022/03/10 09:06:30;;;;;;;7.07;4.85;;;;;;;;;;5113406;28;20047;-70
2022/03/10 09:08:56;;;;;;;8.48;5.15;;;;;;;;;;5095051;28;20024;-69
2022/03/10 09:11:22;;;;;;;9.23;5.13;;;;;;;;;;5094755;28;20031;-70
2022/03/10 09:13:50;;;;;;;6.47;4.20;;;;;;;;;;5093704;28;20525;-69
2022/03/10 09:16:19;;;;;;;6.88;4.07;;;;;;;;;;5107360;28;20033;-69
2022/03/10 09:18:45;;;;;;;8.90;4.57;;;;;;;;;;5109631;28;20024;-70
2022/03/10 09:21:13;;;;;;;7.30;3.78;;;;;;;;;;5099572;28;20038;-70
2022/03/10 09:23:38;;;;;;;7.65;4.18;;;;;;;;;;5096919;28;20019;-69
2022/03/10 09:26:04;;;;;;;6.75;3.75;;;;;;;;;;5109683;28;20023;-70
2022/03/10 09:28:29;;;;;;;9.18;4.60;;;;;;;;;;5108137;28;20031;-71
2022/03/10 09:30:54;;;;;;;6.38;3.78;;;;;;;;;;5104764;28;20062;-70
2022/03/10 09:33:19;;;;;;;5.72;3.67;;;;;;;;;;5104319;28;20236;-67
2022/03/10 09:35:45;;;;;;;5.93;3.60;;;;;;;;;;5099740;28;20051;-70
2022/03/10 09:38:10;;;;;;;7.10;4.35;;;;;;;;;;5096931;28;20432;-68
2022/03/10 09:40:35;;;;;;;6.35;4.07;;;;;;;;;;5113111;28;20011;-69
2022/03/10 09:43:01;;;;;;;8.20;3.97;;;;;;;;;;5105228;28;20022;-70
2022/03/10 09:45:28;;;;;;;9.73;4.43;;;;;;;;;;5112045;28;20030;-71
2022/03/10 09:47:54;;;;;;;8.10;3.95;;;;;;;;;;5099016;28;20027;-69
2022/03/10 09:50:19;;;;;;;9.63;4.93;;;;;;;;;;5099440;28;20023;-70
2022/03/10 09:52:45;;;;;;;7.38;4.88;;;;;;;;;;5096947;28;20111;-69
2022/03/10 09:55:10;;;;;;;6.53;4.32;;;;;;;;;;5102821;28;20070;-70
2022/03/10 09:57:40;;;;;;;8.27;5.13;;;;;;;;;;5108939;28;20073;-70
2022/03/10 10:00:06;;;;;;;7.72;4.60;;;;;;;;;;5108616;28;20043;-69
2022/03/10 10:02:32;;;;;;;10.75;4.43;;;;;;;;;;5102015;28;20086;-68
2022/03/10 10:04:57;;;;;;;7.95;4.28;;;;;;;;;;5109165;28;20054;-70
2022/03/10 10:07:27;;;;;;;6.72;4.43;;;;;;;;;;5106762;28;20070;-69
2022/03/10 10:09:56;;;;;;;14.95;4.80;;;;;;;;;;5107954;28;20110;-68
2022/03/10 10:12:31;;;;;;;8.57;4.60;;;;;;;;;;5108046;28;20035;-70
2022/03/10 10:14:57;;;;;;;7.45;4.07;;;;;;;;;;5102581;28;20016;-70
2022/03/10 10:17:30;;;;;;;7.05;4.45;;;;;;;;;;5110702;28;20428;-69
2022/03/10 10:19:57;;;;;;;7.22;4.60;;;;;;;;;;5104124;28;20444;-70
2022/03/10 10:22:25;;;;;;;6.47;4.63;;;;;;;;;;5102487;28;20032;-69
2022/03/10 10:24:51;;;;;;;7.35;4.03;;;;;;;;;;5094429;28;20015;-69
2022/03/10 10:27:20;;;;;;;6.07;4.20;;;;;;;;;;5106621;28;20016;-69
2022/03/10 10:29:47;;;;;;;7.82;4.60;;;;;;;;;;5106216;28;20110;-68
2022/03/10 10:32:13;;;;;;;7.97;4.20;;;;;;;;;;5106336;28;20028;-69
2022/03/10 10:34:38;;;;;;;7.47;4.35;;;;;;;;;;5111163;28;20509;-69
2022/03/10 10:37:03;;;;;;;6.05;4.43;;;;;;;;;;5107586;28;20051;-68
2022/03/10 10:39:29;;;;;;;7.70;4.53;;;;;;;;;;5105970;28;20023;-69
2022/03/10 10:41:54;;;;;;;6.93;4.57;;;;;;;;;;5106279;28;20388;-69
2022/03/10 10:44:20;;;;;;;6.75;5.07;;;;;;;;;;5109740;28;20039;-70
2022/03/10 10:46:53;;;;;;;6.38;4.40;;;;;;;;;;5100586;28;20465;-70
2022/03/10 10:49:19;;;;;;;5.85;4.60;;;;;;;;;;5107307;28;20100;-70
2022/03/10 10:51:45;;;;;;;7.20;5.43;;;;;;;;;;5102650;28;20106;-70
2022/03/10 10:54:29;;;;;;;7.38;5.60;;;;;;;;;;5105489;28;20113;-69
2022/03/10 10:56:58;;;;;;;7.53;5.20;;;;;;;;;;5106312;28;20054;-69
2022/03/10 10:59:31;;;;;;;5.68;4.50;;;;;;;;;;5109087;28;20031;-68
2022/03/10 11:02:22;;;;;;;5.95;4.35;;;;;;;;;;5102414;28;20024;-70
2022/03/10 11:04:49;;;;;;;5.63;4.70;;;;;;;;;;5106905;28;20028;-69
2022/03/10 11:07:14;;;;;;;5.90;5.03;;;;;;;;;;5110388;28;20020;-69
2022/03/10 11:09:41;;;;;;;6.10;4.35;;;;;;;;;;5111527;28;20103;-69
2022/03/10 11:12:09;;;;;;;5.85;4.70;;;;;;;;;;5109764;28;20024;-69
2022/03/10 11:14:34;;;;;;;5.03;4.53;;;;;;;;;;5108389;28;20028;-69
2022/03/10 11:17:00;;;;;;;6.30;4.95;;;;;;;;;;5092465;28;20028;-70
2022/03/10 11:19:30;;;;;;;5.40;4.55;;;;;;;;;;5092691;28;20039;-69
2022/03/10 11:22:04;;;;;;;5.68;4.70;;;;;;;;;;5091029;28;20019;-69
2022/03/10 11:24:29;;;;;;;7.10;5.55;;;;;;;;;;5100613;28;20049;-69
2022/03/10 11:26:58;;;;;;;6.53;5.18;;;;;;;;;;5109747;28;20108;-69
2022/03/10 11:29:24;;;;;;;5.70;5.10;;;;;;;;;;5108434;28;20016;-69
2022/03/10 11:31:52;;;;;;;6.28;4.53;;;;;;;;;;5105908;28;20034;-69
2022/03/10 11:34:36;;;;;;;5.60;4.97;;;;;;;;;;5111312;28;20030;-70
2022/03/10 11:37:08;;;;;;;6.00;5.22;;;;;;;;;;5096476;28;20020;-70
2022/03/10 11:39:51;;;;;;;6.63;5.20;;;;;;;;;;5095897;28;20012;-68
2022/03/10 11:42:27;;;;;;;5.53;4.72;;;;;;;;;;5107726;28;20107;-69
2022/03/10 11:45:11;;;;;;;5.10;4.22;;;;;;;;;;5114793;28;20016;-69
2022/03/10 11:47:37;;;;;;;5.18;4.70;;;;;;;;;;5103179;28;20024;-68
2022/03/10 11:50:21;;;;;;;5.70;5.07;;;;;;;;;;5108912;28;20034;-68
2022/03/10 11:52:56;;;;;;;5.13;4.63;;;;;;;;;;5112762;28;20448;-69
2022/03/10 11:55:22;;;;;;;5.63;4.60;;;;;;;;;;5104768;28;20062;-70
2022/03/10 11:57:53;;;;;;;5.32;4.82;;;;;;;;;;5113458;28;20059;-69
2022/03/10 12:00:22;;;;;;;4.53;4.13;;;;;;;;;;5099206;28;20035;-70
2022/03/10 12:02:56;;;;;;;4.40;4.00;;;;;;;;;;5110107;28;20019;-70
2022/03/10 12:05:21;;;;;;;5.68;4.10;;;;;;;;;;5112700;28;20015;-69
2022/03/10 12:07:50;;;;;;;4.65;4.00;;;;;;;;;;5108470;28;20035;-69
2022/03/10 12:10:16;;;;;;;5.30;3.58;;;;;;;;;;5098970;28;20057;-69
2022/03/10 12:12:42;;;;;;;3.97;3.65;;;;;;;;;;5109529;28;20369;-70
2022/03/10 12:15:26;;;;;;;3.55;3.25;;;;;;;;;;5106933;28;20024;-70
2022/03/10 12:17:53;;;;;;;4.53;4.13;;;;;;;;;;5110894;28;20065;-69
2022/03/10 12:20:23;;;;;;;4.05;3.75;;;;;;;;;;5113905;28;20035;-70
2022/03/10 12:23:03;;;;;;;5.57;4.03;;;;;;;;;;5114985;28;20130;-70
2022/03/10 12:25:29;;;;;;;5.75;4.03;;;;;;;;;;5104848;28;20012;-69
2022/03/10 12:27:55;;;;;;;3.90;3.50;;;;;;;;;;5105270;28;20502;-69
2022/03/10 12:30:21;;;;;;;4.72;3.90;;;;;;;;;;5111258;28;20027;-70
2022/03/10 12:32:48;;;;;;;3.78;3.28;;;;;;;;;;5114266;28;20026;-70
2022/03/10 12:35:14;;;;;;;6.10;4.10;;;;;;;;;;5114245;28;20027;-70
2022/03/10 12:37:45;;;;;;;4.53;3.10;;;;;;;;;;5107526;28;20027;-70
2022/03/10 12:40:15;;;;;;;4.97;3.60;;;;;;;;;;5101996;28;20518;-70
2022/03/10 12:42:41;;;;;;;3.25;2.95;;;;;;;;;;5113488;28;20461;-68
2022/03/10 12:45:07;;;;;;;3.97;3.15;;;;;;;;;;5114194;28;20027;-69
2022/03/10 12:47:32;;;;;;;4.20;3.20;;;;;;;;;;5105269;28;20028;-69
2022/03/10 12:49:58;;;;;;;6.80;4.40;;;;;;;;;;5106406;28;20016;-70
2022/03/10 12:52:27;;;;;;;4.45;3.55;;;;;;;;;;5103852;28;20357;-69
2022/03/10 12:54:55;;;;;;;4.68;3.28;;;;;;;;;;5105645;28;20068;-67
2022/03/10 12:57:20;;;;;;;4.38;3.50;;;;;;;;;;5112152;28;20036;-70
2022/03/10 12:59:45;;;;;;;4.60;3.60;;;;;;;;;;5112718;28;20377;-70
2022/03/10 13:02:16;;;;;;;4.77;3.83;;;;;;;;;;5114063;28;20032;-70
2022/03/10 13:04:48;;;;;;;8.20;4.22;;;;;;;;;;5109548;28;20334;-69
2022/03/10 13:07:15;;;;;;;6.68;4.20;;;;;;;;;;5093650;28;20052;-68
2022/03/10 13:09:40;;;;;;;5.38;4.13;;;;;;;;;;5099301;28;20034;-69
2022/03/10 13:12:06;;;;;;;7.50;4.33;;;;;;;;;;5109816;27;20504;-69
2022/03/10 13:14:31;;;;;;;7.50;4.45;;;;;;;;;;5109261;27;20269;-71
2022/03/10 13:16:56;;;;;;;4.32;3.85;;;;;;;;;;5109667;28;20019;-69
2022/03/10 13:19:23;;;;;;;5.63;4.32;;;;;;;;;;5112760;28;20114;-69
2022/03/10 13:21:52;;;;;;;5.88;4.68;;;;;;;;;;5104540;28;20047;-69
2022/03/10 13:24:33;;;;;;;5.68;4.47;;;;;;;;;;5094598;28;20026;-69
2022/03/10 13:27:05;;;;;;;5.10;4.28;;;;;;;;;;5110452;28;20020;-69
2022/03/10 13:29:30;;;;;;;6.13;4.53;;;;;;;;;;5109702;28;20015;-71
2022/03/10 13:31:55;;;;;;;6.17;5.20;;;;;;;;;;5111840;28;20391;-70
2022/03/10 13:34:23;;;;;;;6.15;5.07;;;;;;;;;;5112473;28;20301;-69
2022/03/10 13:36:49;;;;;;;6.25;5.50;;;;;;;;;;5112420;28;20028;-70
2022/03/10 13:39:14;;;;;;;6.07;4.95;;;;;;;;;;5098194;28;20441;-70
2022/03/10 13:41:42;;;;;;;7.15;5.45;;;;;;;;;;5102317;28;20110;-70
2022/03/10 13:44:14;;;;;;;7.35;5.53;;;;;;;;;;5110679;28;20024;-70
2022/03/10 13:46:40;;;;;;;9.18;5.85;;;;;;;;;;5098440;27;20111;-70
2022/03/10 13:49:17;;;;;;;7.77;5.77;;;;;;;;;;5101483;28;20102;-70
2022/03/10 13:51:42;;;;;;;9.13;5.60;;;;;;;;;;5105923;28;20633;-69
2022/03/10 13:54:08;;;;;;;9.13;6.32;;;;;;;;;;5095802;28;20130;-70
2022/03/10 13:56:40;;;;;;;10.65;5.88;;;;;;;;;;5101413;28;20079;-70
2022/03/10 13:59:07;;;;;;;7.75;5.55;;;;;;;;;;5112089;28;20026;-70
2022/03/10 14:01:34;;;;;;;10.68;6.38;;;;;;;;;;5112674;27;20024;-71
2022/03/10 14:04:00;;;;;;;9.52;5.68;;;;;;;;;;5105992;28;20024;-70
2022/03/10 14:06:26;;;;;;;8.73;5.68;;;;;;;;;;5098767;28;20065;-70
2022/03/10 14:08:52;;;;;;;9.75;5.88;;;;;;;;;;5090678;28;20439;-70
2022/03/10 14:11:19;;;;;;;7.47;5.85;;;;;;;;;;5077774;28;20030;-70
2022/03/10 14:13:47;;;;;;;9.43;5.70;;;;;;;;;;5110981;28;20043;-69
2022/03/10 14:16:16;;;;;;;7.88;6.00;;;;;;;;;;5103353;28;20423;-70
2022/03/10 14:18:48;;;;;;;9.93;6.22;;;;;;;;;;5105767;28;20069;-71
2022/03/10 14:21:14;;;;;;;8.48;6.15;;;;;;;;;;5111564;28;20077;-69
2022/03/10 14:23:40;;;;;;;8.57;5.97;;;;;;;;;;5108873;28;20019;-70
2022/03/10 14:26:14;;;;;;;10.80;6.63;;;;;;;;;;5108376;28;20034;-71
2022/03/10 14:28:40;;;;;;;10.60;6.95;;;;;;;;;;5112103;28;20038;-72
2022/03/10 14:31:06;;;;;;;11.05;6.60;;;;;;;;;;5108123;28;20027;-71
2022/03/10 14:33:31;;;;;;;11.05;7.70;;;;;;;;;;5100576;28;20216;-70